sensor_id;sensor_type;location;lat;lon;timestamp;P1;durP1;ratioP1;P2;durP2;ratioP2
12900;SDS011;6518;50.930;5.344;2023-11-21T00:01:03;68.13;;;30.83;;
12900;SDS011;6518;50.930;5.344;2023-11-21T00:03:31;57.03;;;28.53;;
12900;SDS011;6518;50.930;5.344;2023-11-21T00:05:58;54.17;;;26.93;;
12900;SDS011;6518;50.930;5.344;2023-11-21T00:08:25;53.30;;;25.77;;
12900;SDS011;6518;50.930;5.344;2023-11-21T00:10:52;50.50;;;24.43;;
12900;SDS011;6518;50.930;5.344;2023-11-21T00:13:20;50.70;;;24.87;;
12900;SDS011;6518;50.930;5.344;2023-11-21T00:15:47;46.77;;;23.90;;
12900;SDS011;6518;50.930;5.344;2023-11-21T00:18:14;45.63;;;22.00;;
12900;SDS011;6518;50.930;5.344;2023-11-21T00:20:43;47.80;;;22.70;;
12900;SDS011;6518;50.930;5.344;2023-11-21T00:23:10;46.90;;;22.50;;
12900;SDS011;6518;50.930;5.344;2023-11-21T00:25:37;44.20;;;22.40;;
12900;SDS011;6518;50.930;5.344;2023-11-21T00:28:03;49.63;;;22.27;;
12900;SDS011;6518;50.930;5.344;2023-11-21T00:30:31;43.53;;;21.47;;
12900;SDS011;6518;50.930;5.344;2023-11-21T00:32:58;55.77;;;24.17;;
12900;SDS011;6518;50.930;5.344;2023-11-21T00:35:25;50.43;;;23.63;;
12900;SDS011;6518;50.930;5.344;2023-11-21T00:37:53;42.87;;;20.50;;
12900;SDS011;6518;50.930;5.344;2023-11-21T00:40:20;43.47;;;22.03;;
12900;SDS011;6518;50.930;5.344;2023-11-21T00:42:47;47.10;;;22.23;;
12900;SDS011;6518;50.930;5.344;2023-11-21T00:45:14;40.33;;;21.57;;
12900;SDS011;6518;50.930;5.344;2023-11-21T00:47:41;47.73;;;22.63;;
12900;SDS011;6518;50.930;5.344;2023-11-21T00:50:08;41.90;;;21.90;;
12900;SDS011;6518;50.930;5.344;2023-11-21T00:52:35;45.07;;;21.63;;
12900;SDS011;6518;50.930;5.344;2023-11-21T00:55:04;44.30;;;22.90;;
12900;SDS011;6518;50.930;5.344;2023-11-21T00:57:32;43.40;;;21.20;;
12900;SDS011;6518;50.930;5.344;2023-11-21T00:59:59;45.27;;;21.07;;
12900;SDS011;6518;50.930;5.344;2023-11-21T01:02:26;41.53;;;22.23;;
12900;SDS011;6518;50.930;5.344;2023-11-21T01:04:54;42.30;;;21.47;;
12900;SDS011;6518;50.930;5.344;2023-11-21T01:07:20;37.23;;;20.20;;
12900;SDS011;6518;50.930;5.344;2023-11-21T01:09:48;39.80;;;20.60;;
12900;SDS011;6518;50.930;5.344;2023-11-21T01:12:16;41.07;;;22.10;;
12900;SDS011;6518;50.930;5.344;2023-11-21T01:14:44;38.83;;;21.93;;
12900;SDS011;6518;50.930;5.344;2023-11-21T01:17:11;39.53;;;21.17;;
12900;SDS011;6518;50.930;5.344;2023-11-21T01:19:38;39.10;;;21.57;;
12900;SDS011;6518;50.930;5.344;2023-11-21T01:22:05;39.90;;;21.80;;
12900;SDS011;6518;50.930;5.344;2023-11-21T01:24:32;39.67;;;21.87;;
12900;SDS011;6518;50.930;5.344;2023-11-21T01:26:59;38.83;;;21.50;;
12900;SDS011;6518;50.930;5.344;2023-11-21T01:29:27;39.20;;;22.77;;
12900;SDS011;6518;50.930;5.344;2023-11-21T01:31:54;34.93;;;21.07;;
12900;SDS011;6518;50.930;5.344;2023-11-21T01:34:22;36.27;;;21.70;;
12900;SDS011;6518;50.930;5.344;2023-11-21T01:36:49;39.30;;;21.83;;
12900;SDS011;6518;50.930;5.344;2023-11-21T01:39:16;37.03;;;22.20;;
12900;SDS011;6518;50.930;5.344;2023-11-21T01:41:48;35.30;;;21.00;;
12900;SDS011;6518;50.930;5.344;2023-11-21T01:44:16;36.13;;;21.17;;
12900;SDS011;6518;50.930;5.344;2023-11-21T01:46:45;39.67;;;22.07;;
12900;SDS011;6518;50.930;5.344;2023-11-21T01:49:13;37.63;;;20.70;;
12900;SDS011;6518;50.930;5.344;2023-11-21T01:51:41;37.47;;;21.97;;
12900;SDS011;6518;50.930;5.344;2023-11-21T01:54:09;41.87;;;22.47;;
12900;SDS011;6518;50.930;5.344;2023-11-21T01:56:37;46.80;;;23.07;;
12900;SDS011;6518;50.930;5.344;2023-11-21T01:59:04;40.83;;;22.67;;
12900;SDS011;6518;50.930;5.344;2023-11-21T02:01:32;40.83;;;22.00;;
12900;SDS011;6518;50.930;5.344;2023-11-21T02:04:00;42.73;;;22.77;;
12900;SDS011;6518;50.930;5.344;2023-11-21T02:06:28;39.63;;;22.33;;
12900;SDS011;6518;50.930;5.344;2023-11-21T02:08:56;43.80;;;23.17;;
12900;SDS011;6518;50.930;5.344;2023-11-21T02:11:24;43.03;;;23.13;;
12900;SDS011;6518;50.930;5.344;2023-11-21T02:13:52;42.80;;;23.03;;
12900;SDS011;6518;50.930;5.344;2023-11-21T02:16:20;42.90;;;22.87;;
12900;SDS011;6518;50.930;5.344;2023-11-21T02:18:47;45.30;;;22.67;;
12900;SDS011;6518;50.930;5.344;2023-11-21T02:21:16;45.43;;;24.23;;
12900;SDS011;6518;50.930;5.344;2023-11-21T02:23:45;47.67;;;23.50;;
12900;SDS011;6518;50.930;5.344;2023-11-21T02:26:12;46.53;;;24.27;;
12900;SDS011;6518;50.930;5.344;2023-11-21T02:28:39;48.17;;;23.70;;
12900;SDS011;6518;50.930;5.344;2023-11-21T02:31:06;48.13;;;24.80;;
12900;SDS011;6518;50.930;5.344;2023-11-21T02:33:33;46.43;;;24.57;;
12900;SDS011;6518;50.930;5.344;2023-11-21T02:36:00;50.50;;;24.13;;
12900;SDS011;6518;50.930;5.344;2023-11-21T02:38:28;55.53;;;25.60;;
12900;SDS011;6518;50.930;5.344;2023-11-21T02:40:57;55.77;;;26.73;;
12900;SDS011;6518;50.930;5.344;2023-11-21T02:43:24;54.80;;;26.77;;
12900;SDS011;6518;50.930;5.344;2023-11-21T02:45:51;54.03;;;26.37;;
12900;SDS011;6518;50.930;5.344;2023-11-21T02:48:18;53.90;;;26.50;;
12900;SDS011;6518;50.930;5.344;2023-11-21T02:50:44;54.57;;;27.07;;
12900;SDS011;6518;50.930;5.344;2023-11-21T02:53:11;50.77;;;26.67;;
12900;SDS011;6518;50.930;5.344;2023-11-21T02:55:38;61.17;;;26.53;;
12900;SDS011;6518;50.930;5.344;2023-11-21T02:58:07;58.00;;;27.17;;
12900;SDS011;6518;50.930;5.344;2023-11-21T03:00:34;56.70;;;28.03;;
12900;SDS011;6518;50.930;5.344;2023-11-21T03:03:01;66.77;;;29.83;;
12900;SDS011;6518;50.930;5.344;2023-11-21T03:05:29;70.20;;;30.03;;
12900;SDS011;6518;50.930;5.344;2023-11-21T03:07:56;64.87;;;29.03;;
12900;SDS011;6518;50.930;5.344;2023-11-21T03:10:22;70.13;;;32.13;;
12900;SDS011;6518;50.930;5.344;2023-11-21T03:12:49;63.90;;;31.70;;
12900;SDS011;6518;50.930;5.344;2023-11-21T03:15:17;78.83;;;33.53;;
12900;SDS011;6518;50.930;5.344;2023-11-21T03:17:44;75.67;;;32.77;;
12900;SDS011;6518;50.930;5.344;2023-11-21T03:20:14;71.60;;;32.07;;
12900;SDS011;6518;50.930;5.344;2023-11-21T03:22:41;72.63;;;31.77;;
12900;SDS011;6518;50.930;5.344;2023-11-21T03:25:08;72.80;;;32.37;;
12900;SDS011;6518;50.930;5.344;2023-11-21T03:27:36;78.63;;;32.70;;
12900;SDS011;6518;50.930;5.344;2023-11-21T03:30:04;77.73;;;32.87;;
12900;SDS011;6518;50.930;5.344;2023-11-21T03:32:36;76.37;;;32.93;;
12900;SDS011;6518;50.930;5.344;2023-11-21T03:35:03;74.00;;;32.97;;
12900;SDS011;6518;50.930;5.344;2023-11-21T03:37:31;74.20;;;31.73;;
12900;SDS011;6518;50.930;5.344;2023-11-21T03:39:58;73.10;;;31.50;;
12900;SDS011;6518;50.930;5.344;2023-11-21T03:42:24;77.53;;;32.67;;
12900;SDS011;6518;50.930;5.344;2023-11-21T03:44:51;74.33;;;30.90;;
12900;SDS011;6518;50.930;5.344;2023-11-21T03:47:18;66.97;;;29.67;;
12900;SDS011;6518;50.930;5.344;2023-11-21T03:49:47;70.27;;;28.57;;
12900;SDS011;6518;50.930;5.344;2023-11-21T03:52:14;75.90;;;30.90;;
12900;SDS011;6518;50.930;5.344;2023-11-21T03:54:41;70.47;;;29.70;;
12900;SDS011;6518;50.930;5.344;2023-11-21T03:57:08;67.70;;;29.70;;
12900;SDS011;6518;50.930;5.344;2023-11-21T03:59:35;81.70;;;33.70;;
12900;SDS011;6518;50.930;5.344;2023-11-21T04:02:02;76.47;;;31.60;;
12900;SDS011;6518;50.930;5.344;2023-11-21T04:04:29;70.93;;;31.93;;
12900;SDS011;6518;50.930;5.344;2023-11-21T04:06:57;72.07;;;30.70;;
12900;SDS011;6518;50.930;5.344;2023-11-21T04:09:24;76.13;;;31.93;;
12900;SDS011;6518;50.930;5.344;2023-11-21T04:11:51;83.00;;;32.60;;
12900;SDS011;6518;50.930;5.344;2023-11-21T04:14:18;74.57;;;32.10;;
12900;SDS011;6518;50.930;5.344;2023-11-21T04:16:45;84.70;;;34.07;;
12900;SDS011;6518;50.930;5.344;2023-11-21T04:19:12;85.93;;;31.80;;
12900;SDS011;6518;50.930;5.344;2023-11-21T04:21:39;76.67;;;31.30;;
12900;SDS011;6518;50.930;5.344;2023-11-21T04:24:08;85.30;;;31.63;;
12900;SDS011;6518;50.930;5.344;2023-11-21T04:26:35;79.53;;;31.77;;
12900;SDS011;6518;50.930;5.344;2023-11-21T04:29:02;80.63;;;31.67;;
12900;SDS011;6518;50.930;5.344;2023-11-21T04:31:29;103.70;;;30.67;;
12900;SDS011;6518;50.930;5.344;2023-11-21T04:33:57;83.33;;;31.73;;
12900;SDS011;6518;50.930;5.344;2023-11-21T04:36:24;84.03;;;32.37;;
12900;SDS011;6518;50.930;5.344;2023-11-21T04:38:50;77.03;;;30.40;;
12900;SDS011;6518;50.930;5.344;2023-11-21T04:41:19;79.90;;;31.17;;
12900;SDS011;6518;50.930;5.344;2023-11-21T04:43:44;83.47;;;31.57;;
12900;SDS011;6518;50.930;5.344;2023-11-21T04:46:11;98.87;;;31.93;;
12900;SDS011;6518;50.930;5.344;2023-11-21T04:48:38;124.40;;;33.73;;
12900;SDS011;6518;50.930;5.344;2023-11-21T04:51:05;113.37;;;32.97;;
12900;SDS011;6518;50.930;5.344;2023-11-21T04:53:32;125.40;;;33.47;;
12900;SDS011;6518;50.930;5.344;2023-11-21T04:55:59;128.23;;;36.47;;
12900;SDS011;6518;50.930;5.344;2023-11-21T04:58:28;119.83;;;33.17;;
12900;SDS011;6518;50.930;5.344;2023-11-21T05:00:54;115.37;;;35.00;;
12900;SDS011;6518;50.930;5.344;2023-11-21T05:03:21;129.27;;;34.13;;
12900;SDS011;6518;50.930;5.344;2023-11-21T05:05:49;147.20;;;36.10;;
12900;SDS011;6518;50.930;5.344;2023-11-21T05:08:16;105.97;;;33.93;;
12900;SDS011;6518;50.930;5.344;2023-11-21T05:10:44;112.63;;;35.93;;
12900;SDS011;6518;50.930;5.344;2023-11-21T05:13:10;103.40;;;33.53;;
12900;SDS011;6518;50.930;5.344;2023-11-21T05:15:39;108.17;;;32.47;;
12900;SDS011;6518;50.930;5.344;2023-11-21T05:18:06;95.57;;;33.57;;
12900;SDS011;6518;50.930;5.344;2023-11-21T05:20:33;90.30;;;32.70;;
12900;SDS011;6518;50.930;5.344;2023-11-21T05:23:00;124.37;;;32.70;;
12900;SDS011;6518;50.930;5.344;2023-11-21T05:25:27;95.70;;;32.30;;
12900;SDS011;6518;50.930;5.344;2023-11-21T05:27:54;124.60;;;31.63;;
12900;SDS011;6518;50.930;5.344;2023-11-21T05:30:21;149.30;;;34.67;;
12900;SDS011;6518;50.930;5.344;2023-11-21T05:32:49;105.87;;;33.53;;
12900;SDS011;6518;50.930;5.344;2023-11-21T05:35:16;137.83;;;34.03;;
12900;SDS011;6518;50.930;5.344;2023-11-21T05:37:43;121.17;;;33.33;;
12900;SDS011;6518;50.930;5.344;2023-11-21T05:40:11;99.43;;;34.27;;
12900;SDS011;6518;50.930;5.344;2023-11-21T05:42:38;99.63;;;33.93;;
12900;SDS011;6518;50.930;5.344;2023-11-21T05:45:06;111.27;;;34.00;;
12900;SDS011;6518;50.930;5.344;2023-11-21T05:47:36;88.93;;;33.07;;
12900;SDS011;6518;50.930;5.344;2023-11-21T05:50:06;91.90;;;32.67;;
12900;SDS011;6518;50.930;5.344;2023-11-21T05:52:35;101.17;;;35.13;;
12900;SDS011;6518;50.930;5.344;2023-11-21T05:55:01;90.07;;;32.07;;
12900;SDS011;6518;50.930;5.344;2023-11-21T05:57:28;74.63;;;28.97;;
12900;SDS011;6518;50.930;5.344;2023-11-21T05:59:55;87.03;;;30.33;;
12900;SDS011;6518;50.930;5.344;2023-11-21T06:02:22;72.33;;;28.17;;
12900;SDS011;6518;50.930;5.344;2023-11-21T06:04:49;71.30;;;27.77;;
12900;SDS011;6518;50.930;5.344;2023-11-21T06:07:17;72.87;;;28.97;;
12900;SDS011;6518;50.930;5.344;2023-11-21T06:09:47;71.40;;;27.27;;
12900;SDS011;6518;50.930;5.344;2023-11-21T06:12:15;77.70;;;28.73;;
12900;SDS011;6518;50.930;5.344;2023-11-21T06:14:44;81.73;;;30.53;;
12900;SDS011;6518;50.930;5.344;2023-11-21T06:17:11;77.40;;;29.43;;
12900;SDS011;6518;50.930;5.344;2023-11-21T06:19:38;84.97;;;28.90;;
12900;SDS011;6518;50.930;5.344;2023-11-21T06:22:05;111.13;;;32.23;;
12900;SDS011;6518;50.930;5.344;2023-11-21T06:24:33;94.73;;;31.60;;
12900;SDS011;6518;50.930;5.344;2023-11-21T06:27:00;92.30;;;31.47;;
12900;SDS011;6518;50.930;5.344;2023-11-21T06:29:29;86.53;;;31.00;;
12900;SDS011;6518;50.930;5.344;2023-11-21T06:31:57;89.80;;;30.67;;
12900;SDS011;6518;50.930;5.344;2023-11-21T06:34:24;86.87;;;31.70;;
12900;SDS011;6518;50.930;5.344;2023-11-21T06:36:52;95.50;;;31.60;;
12900;SDS011;6518;50.930;5.344;2023-11-21T06:39:19;85.53;;;31.20;;
12900;SDS011;6518;50.930;5.344;2023-11-21T06:41:49;95.90;;;32.20;;
12900;SDS011;6518;50.930;5.344;2023-11-21T06:44:16;85.90;;;30.83;;
12900;SDS011;6518;50.930;5.344;2023-11-21T06:46:43;78.80;;;32.07;;
12900;SDS011;6518;50.930;5.344;2023-11-21T06:49:10;84.73;;;30.47;;
12900;SDS011;6518;50.930;5.344;2023-11-21T06:51:37;93.97;;;30.77;;
12900;SDS011;6518;50.930;5.344;2023-11-21T06:54:04;89.40;;;30.80;;
12900;SDS011;6518;50.930;5.344;2023-11-21T06:56:32;83.20;;;31.87;;
12900;SDS011;6518;50.930;5.344;2023-11-21T06:59:00;80.17;;;31.00;;
12900;SDS011;6518;50.930;5.344;2023-11-21T07:01:28;83.27;;;32.33;;
12900;SDS011;6518;50.930;5.344;2023-11-21T07:03:55;84.83;;;31.57;;
12900;SDS011;6518;50.930;5.344;2023-11-21T07:06:22;82.73;;;31.97;;
12900;SDS011;6518;50.930;5.344;2023-11-21T07:08:49;77.30;;;31.97;;
12900;SDS011;6518;50.930;5.344;2023-11-21T07:11:15;80.90;;;33.20;;
12900;SDS011;6518;50.930;5.344;2023-11-21T07:13:42;83.23;;;32.53;;
12900;SDS011;6518;50.930;5.344;2023-11-21T07:16:10;76.93;;;33.00;;
12900;SDS011;6518;50.930;5.344;2023-11-21T07:18:37;80.93;;;32.27;;
12900;SDS011;6518;50.930;5.344;2023-11-21T07:21:05;86.23;;;32.67;;
12900;SDS011;6518;50.930;5.344;2023-11-21T07:23:33;83.40;;;33.33;;
12900;SDS011;6518;50.930;5.344;2023-11-21T07:26:01;91.00;;;35.30;;
12900;SDS011;6518;50.930;5.344;2023-11-21T07:28:28;81.07;;;32.53;;
12900;SDS011;6518;50.930;5.344;2023-11-21T07:30:56;82.23;;;33.47;;
12900;SDS011;6518;50.930;5.344;2023-11-21T07:33:26;90.03;;;33.83;;
12900;SDS011;6518;50.930;5.344;2023-11-21T07:35:52;79.93;;;33.17;;
12900;SDS011;6518;50.930;5.344;2023-11-21T07:38:19;82.10;;;33.07;;
12900;SDS011;6518;50.930;5.344;2023-11-21T07:40:46;81.27;;;33.40;;
12900;SDS011;6518;50.930;5.344;2023-11-21T07:43:13;79.83;;;32.93;;
12900;SDS011;6518;50.930;5.344;2023-11-21T07:45:40;84.63;;;33.50;;
12900;SDS011;6518;50.930;5.344;2023-11-21T07:48:07;86.90;;;33.77;;
12900;SDS011;6518;50.930;5.344;2023-11-21T07:50:35;81.83;;;32.83;;
12900;SDS011;6518;50.930;5.344;2023-11-21T07:53:02;84.60;;;33.77;;
12900;SDS011;6518;50.930;5.344;2023-11-21T07:55:30;88.37;;;33.13;;
12900;SDS011;6518;50.930;5.344;2023-11-21T07:57:58;86.70;;;33.40;;
12900;SDS011;6518;50.930;5.344;2023-11-21T08:00:25;81.20;;;32.43;;
12900;SDS011;6518;50.930;5.344;2023-11-21T08:02:55;81.63;;;32.83;;
12900;SDS011;6518;50.930;5.344;2023-11-21T08:05:22;80.63;;;32.00;;
12900;SDS011;6518;50.930;5.344;2023-11-21T08:07:50;81.87;;;33.30;;
12900;SDS011;6518;50.930;5.344;2023-11-21T08:10:17;79.80;;;32.43;;
12900;SDS011;6518;50.930;5.344;2023-11-21T08:12:44;80.50;;;32.53;;
12900;SDS011;6518;50.930;5.344;2023-11-21T08:15:11;75.67;;;31.27;;
12900;SDS011;6518;50.930;5.344;2023-11-21T08:17:37;74.97;;;30.57;;
12900;SDS011;6518;50.930;5.344;2023-11-21T08:20:05;78.70;;;30.00;;
12900;SDS011;6518;50.930;5.344;2023-11-21T08:22:33;75.70;;;31.37;;
12900;SDS011;6518;50.930;5.344;2023-11-21T08:25:02;76.90;;;32.77;;
12900;SDS011;6518;50.930;5.344;2023-11-21T08:27:30;78.27;;;30.60;;
12900;SDS011;6518;50.930;5.344;2023-11-21T08:29:56;72.70;;;30.47;;
12900;SDS011;6518;50.930;5.344;2023-11-21T08:32:23;74.83;;;32.27;;
12900;SDS011;6518;50.930;5.344;2023-11-21T08:34:50;70.90;;;31.13;;
12900;SDS011;6518;50.930;5.344;2023-11-21T08:37:17;76.67;;;30.97;;
12900;SDS011;6518;50.930;5.344;2023-11-21T08:39:44;83.17;;;32.87;;
12900;SDS011;6518;50.930;5.344;2023-11-21T08:42:12;69.70;;;32.17;;
12900;SDS011;6518;50.930;5.344;2023-11-21T08:44:40;73.87;;;31.53;;
12900;SDS011;6518;50.930;5.344;2023-11-21T08:47:06;71.17;;;29.73;;
12900;SDS011;6518;50.930;5.344;2023-11-21T08:49:33;66.77;;;30.43;;
12900;SDS011;6518;50.930;5.344;2023-11-21T08:52:00;68.67;;;30.07;;
12900;SDS011;6518;50.930;5.344;2023-11-21T08:54:27;68.87;;;30.17;;
12900;SDS011;6518;50.930;5.344;2023-11-21T08:56:54;63.63;;;28.97;;
12900;SDS011;6518;50.930;5.344;2023-11-21T08:59:24;56.53;;;27.30;;
12900;SDS011;6518;50.930;5.344;2023-11-21T09:01:51;58.67;;;26.67;;
12900;SDS011;6518;50.930;5.344;2023-11-21T09:04:18;56.20;;;27.23;;
12900;SDS011;6518;50.930;5.344;2023-11-21T09:06:45;62.10;;;26.97;;
12900;SDS011;6518;50.930;5.344;2023-11-21T09:09:12;56.90;;;27.03;;
12900;SDS011;6518;50.930;5.344;2023-11-21T09:11:39;56.53;;;26.13;;
12900;SDS011;6518;50.930;5.344;2023-11-21T09:14:06;55.03;;;27.23;;
12900;SDS011;6518;50.930;5.344;2023-11-21T09:16:36;56.00;;;26.33;;
12900;SDS011;6518;50.930;5.344;2023-11-21T09:19:03;44.43;;;24.03;;
12900;SDS011;6518;50.930;5.344;2023-11-21T09:21:32;52.93;;;24.83;;
12900;SDS011;6518;50.930;5.344;2023-11-21T09:23:59;48.07;;;23.73;;
12900;SDS011;6518;50.930;5.344;2023-11-21T09:26:26;43.73;;;23.33;;
12900;SDS011;6518;50.930;5.344;2023-11-21T09:28:54;50.27;;;24.47;;
12900;SDS011;6518;50.930;5.344;2023-11-21T09:31:21;46.53;;;24.47;;
12900;SDS011;6518;50.930;5.344;2023-11-21T09:33:50;40.77;;;22.47;;
12900;SDS011;6518;50.930;5.344;2023-11-21T09:36:17;44.13;;;22.27;;
12900;SDS011;6518;50.930;5.344;2023-11-21T09:38:46;39.33;;;21.30;;
12900;SDS011;6518;50.930;5.344;2023-11-21T09:41:15;46.13;;;22.63;;
12900;SDS011;6518;50.930;5.344;2023-11-21T09:43:49;41.37;;;21.57;;
12900;SDS011;6518;50.930;5.344;2023-11-21T09:46:21;40.97;;;22.63;;
12900;SDS011;6518;50.930;5.344;2023-11-21T09:48:51;42.93;;;22.60;;
12900;SDS011;6518;50.930;5.344;2023-11-21T09:51:19;39.20;;;21.37;;
12900;SDS011;6518;50.930;5.344;2023-11-21T09:53:48;38.67;;;21.03;;
12900;SDS011;6518;50.930;5.344;2023-11-21T09:56:18;38.17;;;21.40;;
12900;SDS011;6518;50.930;5.344;2023-11-21T09:58:50;41.67;;;21.83;;
12900;SDS011;6518;50.930;5.344;2023-11-21T10:01:18;42.63;;;21.67;;
12900;SDS011;6518;50.930;5.344;2023-11-21T10:03:47;43.07;;;21.97;;
12900;SDS011;6518;50.930;5.344;2023-11-21T10:06:15;41.40;;;21.33;;
12900;SDS011;6518;50.930;5.344;2023-11-21T10:08:44;41.17;;;22.33;;
12900;SDS011;6518;50.930;5.344;2023-11-21T10:11:11;44.97;;;22.23;;
12900;SDS011;6518;50.930;5.344;2023-11-21T10:13:39;40.73;;;22.33;;
12900;SDS011;6518;50.930;5.344;2023-11-21T10:16:07;35.23;;;20.87;;
12900;SDS011;6518;50.930;5.344;2023-11-21T10:18:38;41.10;;;22.37;;
12900;SDS011;6518;50.930;5.344;2023-11-21T10:21:07;39.63;;;22.07;;
12900;SDS011;6518;50.930;5.344;2023-11-21T10:23:36;43.17;;;21.13;;
12900;SDS011;6518;50.930;5.344;2023-11-21T10:26:04;36.73;;;21.63;;
12900;SDS011;6518;50.930;5.344;2023-11-21T10:28:35;38.07;;;20.67;;
12900;SDS011;6518;50.930;5.344;2023-11-21T10:31:06;41.30;;;21.77;;
12900;SDS011;6518;50.930;5.344;2023-11-21T10:33:33;45.77;;;24.40;;
12900;SDS011;6518;50.930;5.344;2023-11-21T10:36:00;42.93;;;23.30;;
12900;SDS011;6518;50.930;5.344;2023-11-21T10:38:27;39.60;;;21.83;;
12900;SDS011;6518;50.930;5.344;2023-11-21T10:40:57;41.13;;;20.87;;
12900;SDS011;6518;50.930;5.344;2023-11-21T10:43:24;40.90;;;21.23;;
12900;SDS011;6518;50.930;5.344;2023-11-21T10:45:52;41.63;;;20.90;;
12900;SDS011;6518;50.930;5.344;2023-11-21T10:48:24;42.33;;;21.97;;
12900;SDS011;6518;50.930;5.344;2023-11-21T10:50:50;39.63;;;21.93;;
12900;SDS011;6518;50.930;5.344;2023-11-21T10:53:17;43.20;;;22.73;;
12900;SDS011;6518;50.930;5.344;2023-11-21T10:55:44;42.27;;;23.63;;
12900;SDS011;6518;50.930;5.344;2023-11-21T10:58:13;38.10;;;20.97;;
12900;SDS011;6518;50.930;5.344;2023-11-21T11:00:40;36.10;;;21.67;;
12900;SDS011;6518;50.930;5.344;2023-11-21T11:03:08;39.90;;;20.27;;
12900;SDS011;6518;50.930;5.344;2023-11-21T11:05:39;37.80;;;20.33;;
12900;SDS011;6518;50.930;5.344;2023-11-21T11:08:11;43.23;;;21.77;;
12900;SDS011;6518;50.930;5.344;2023-11-21T11:10:43;41.23;;;21.33;;
12900;SDS011;6518;50.930;5.344;2023-11-21T11:13:13;40.83;;;20.93;;
12900;SDS011;6518;50.930;5.344;2023-11-21T11:15:40;43.53;;;22.27;;
12900;SDS011;6518;50.930;5.344;2023-11-21T11:18:09;43.30;;;21.40;;
12900;SDS011;6518;50.930;5.344;2023-11-21T11:20:37;34.50;;;19.03;;
12900;SDS011;6518;50.930;5.344;2023-11-21T11:23:13;38.43;;;20.87;;
12900;SDS011;6518;50.930;5.344;2023-11-21T11:26:07;33.37;;;19.43;;
12900;SDS011;6518;50.930;5.344;2023-11-21T11:28:51;35.80;;;19.37;;
12900;SDS011;6518;50.930;5.344;2023-11-21T11:31:25;33.57;;;18.20;;
12900;SDS011;6518;50.930;5.344;2023-11-21T11:34:04;35.63;;;20.10;;
12900;SDS011;6518;50.930;5.344;2023-11-21T11:36:39;35.77;;;20.13;;
12900;SDS011;6518;50.930;5.344;2023-11-21T11:39:29;39.30;;;21.17;;
12900;SDS011;6518;50.930;5.344;2023-11-21T11:41:57;46.53;;;21.13;;
12900;SDS011;6518;50.930;5.344;2023-11-21T11:47:16;41.97;;;21.87;;
12900;SDS011;6518;50.930;5.344;2023-11-21T11:49:56;39.97;;;20.97;;
12900;SDS011;6518;50.930;5.344;2023-11-21T11:52:31;39.67;;;20.43;;
12900;SDS011;6518;50.930;5.344;2023-11-21T11:55:02;39.80;;;20.57;;
12900;SDS011;6518;50.930;5.344;2023-11-21T11:57:30;43.37;;;20.33;;
12900;SDS011;6518;50.930;5.344;2023-11-21T12:00:09;44.50;;;22.93;;
12900;SDS011;6518;50.930;5.344;2023-11-21T12:02:41;46.10;;;23.73;;
12900;SDS011;6518;50.930;5.344;2023-11-21T12:05:09;50.73;;;24.67;;
12900;SDS011;6518;50.930;5.344;2023-11-21T12:07:44;46.37;;;23.97;;
12900;SDS011;6518;50.930;5.344;2023-11-21T12:10:16;49.43;;;24.17;;
12900;SDS011;6518;50.930;5.344;2023-11-21T12:12:47;44.87;;;23.33;;
12900;SDS011;6518;50.930;5.344;2023-11-21T12:15:16;46.30;;;23.57;;
12900;SDS011;6518;50.930;5.344;2023-11-21T12:17:44;44.20;;;23.67;;
12900;SDS011;6518;50.930;5.344;2023-11-21T12:20:12;53.17;;;25.03;;
12900;SDS011;6518;50.930;5.344;2023-11-21T12:22:43;46.23;;;24.33;;
12900;SDS011;6518;50.930;5.344;2023-11-21T12:25:14;47.53;;;24.33;;
12900;SDS011;6518;50.930;5.344;2023-11-21T12:27:43;50.20;;;25.63;;
12900;SDS011;6518;50.930;5.344;2023-11-21T12:30:13;50.43;;;24.77;;
12900;SDS011;6518;50.930;5.344;2023-11-21T12:32:42;50.53;;;25.43;;
12900;SDS011;6518;50.930;5.344;2023-11-21T12:35:11;44.57;;;23.57;;
12900;SDS011;6518;50.930;5.344;2023-11-21T12:37:39;53.13;;;25.20;;
12900;SDS011;6518;50.930;5.344;2023-11-21T12:40:08;44.27;;;22.83;;
12900;SDS011;6518;50.930;5.344;2023-11-21T12:42:37;50.33;;;23.17;;
12900;SDS011;6518;50.930;5.344;2023-11-21T12:45:08;44.63;;;22.50;;
12900;SDS011;6518;50.930;5.344;2023-11-21T12:47:42;43.27;;;22.37;;
12900;SDS011;6518;50.930;5.344;2023-11-21T12:50:10;44.00;;;23.60;;
12900;SDS011;6518;50.930;5.344;2023-11-21T12:52:42;41.17;;;23.03;;
12900;SDS011;6518;50.930;5.344;2023-11-21T12:55:15;44.00;;;23.87;;
12900;SDS011;6518;50.930;5.344;2023-11-21T12:57:43;47.80;;;23.97;;
12900;SDS011;6518;50.930;5.344;2023-11-21T13:00:12;42.17;;;23.33;;
12900;SDS011;6518;50.930;5.344;2023-11-21T13:02:53;40.43;;;24.27;;
12900;SDS011;6518;50.930;5.344;2023-11-21T13:05:28;44.03;;;24.33;;
12900;SDS011;6518;50.930;5.344;2023-11-21T13:07:57;47.20;;;24.83;;
12900;SDS011;6518;50.930;5.344;2023-11-21T13:10:27;39.77;;;22.83;;
12900;SDS011;6518;50.930;5.344;2023-11-21T13:12:56;45.13;;;25.20;;
12900;SDS011;6518;50.930;5.344;2023-11-21T13:15:25;51.47;;;25.27;;
12900;SDS011;6518;50.930;5.344;2023-11-21T13:17:54;42.97;;;25.70;;
12900;SDS011;6518;50.930;5.344;2023-11-21T13:20:22;43.60;;;25.13;;
12900;SDS011;6518;50.930;5.344;2023-11-21T13:22:50;47.90;;;26.23;;
12900;SDS011;6518;50.930;5.344;2023-11-21T13:25:21;47.87;;;26.83;;
12900;SDS011;6518;50.930;5.344;2023-11-21T13:27:48;50.43;;;28.17;;
12900;SDS011;6518;50.930;5.344;2023-11-21T13:30:16;41.07;;;25.30;;
12900;SDS011;6518;50.930;5.344;2023-11-21T13:32:43;46.17;;;25.73;;
12900;SDS011;6518;50.930;5.344;2023-11-21T13:35:13;48.03;;;26.57;;
12900;SDS011;6518;50.930;5.344;2023-11-21T13:37:49;36.63;;;23.40;;
12900;SDS011;6518;50.930;5.344;2023-11-21T13:40:21;43.53;;;25.50;;
12900;SDS011;6518;50.930;5.344;2023-11-21T13:42:50;42.37;;;23.50;;
12900;SDS011;6518;50.930;5.344;2023-11-21T13:45:20;38.03;;;23.07;;
12900;SDS011;6518;50.930;5.344;2023-11-21T13:47:48;36.70;;;21.83;;
12900;SDS011;6518;50.930;5.344;2023-11-21T13:50:18;36.10;;;22.27;;
12900;SDS011;6518;50.930;5.344;2023-11-21T13:52:51;30.90;;;19.80;;
12900;SDS011;6518;50.930;5.344;2023-11-21T13:55:19;32.30;;;18.83;;
12900;SDS011;6518;50.930;5.344;2023-11-21T13:57:49;32.83;;;20.03;;
12900;SDS011;6518;50.930;5.344;2023-11-21T14:00:16;32.83;;;20.30;;
12900;SDS011;6518;50.930;5.344;2023-11-21T14:03:07;30.33;;;19.10;;
12900;SDS011;6518;50.930;5.344;2023-11-21T14:05:43;30.67;;;20.10;;
12900;SDS011;6518;50.930;5.344;2023-11-21T14:08:13;29.30;;;18.40;;
12900;SDS011;6518;50.930;5.344;2023-11-21T14:10:42;27.30;;;18.33;;
12900;SDS011;6518;50.930;5.344;2023-11-21T14:13:12;30.13;;;18.67;;
12900;SDS011;6518;50.930;5.344;2023-11-21T14:15:42;33.13;;;19.73;;
12900;SDS011;6518;50.930;5.344;2023-11-21T14:18:11;33.20;;;20.50;;
12900;SDS011;6518;50.930;5.344;2023-11-21T14:20:42;32.37;;;20.13;;
12900;SDS011;6518;50.930;5.344;2023-11-21T14:23:10;31.37;;;19.03;;
12900;SDS011;6518;50.930;5.344;2023-11-21T14:25:37;29.70;;;18.90;;
12900;SDS011;6518;50.930;5.344;2023-11-21T14:28:07;26.97;;;17.27;;
12900;SDS011;6518;50.930;5.344;2023-11-21T14:30:37;27.60;;;17.47;;
12900;SDS011;6518;50.930;5.344;2023-11-21T14:33:05;24.67;;;16.50;;
12900;SDS011;6518;50.930;5.344;2023-11-21T14:35:33;30.00;;;18.10;;
12900;SDS011;6518;50.930;5.344;2023-11-21T14:38:01;27.80;;;18.23;;
12900;SDS011;6518;50.930;5.344;2023-11-21T14:40:29;30.37;;;17.20;;
12900;SDS011;6518;50.930;5.344;2023-11-21T14:42:58;26.80;;;17.83;;